KPVW/PVW METAR and TAF weather

Enter ICAO airport designator
Station Type Date Time Source
KPVW METAR 2021/01/16 03:15 UTC NOAA

KPVW 160315Z AUTO 30008KT 10SM CLR M01/M11 A3016 RMK AO2 T10101111


Station Type Date Time Source
KPVW Decoded METAR 2021/01/16 03:15 UTC NOAA

Plainview, Hale County Airport, TX, United States (KPVW) 34-10-05N 101-43-02W
Jan 15, 2021 - 10:15 PM EST / 2021.01.16 0315 UTC
Wind: from the WNW (300 degrees) at 9 MPH (8 KT):0
Visibility: 10 mile(s):0
Sky conditions: clear
Temperature: 30.2 F (-1.0 C)
Windchill: 21 F (-6 C):1
Dew Point: 12.0 F (-11.1 C)
Relative Humidity: 46%
Pressure (altimeter): 30.16 in. Hg (1021 hPa)
ob: KPVW 160315Z AUTO 30008KT 10SM CLR M01/M11 A3016 RMK AO2 T10101111
cycle: 3

Station Type Date Time Source
KPVW TAF 2021/01/15 18:28 UTC NOAA

TAF KPVW 151726Z 1518/1618 34020G30KT P6SM FEW250
FM160000 30007KT P6SM SKC

Example: see airport list